Time;durP1;ratioP1;P1;durP2;ratioP2;P2;SDS_P1;SDS_P2;PMS_P1;PMS_P2;Temp;Humidity;BMP_temperature;BMP_pressure;BME280_temperature;BME280_humidity;BME280_pressure;Samples;Min_cycle;Max_cycle;Signal;HPM_P1;HPM_P2
2022/09/06 00:02:19;;;;;;;2.62;1.00;;;;;;;;;;2597922;53;21050;-79
2022/09/06 00:04:47;;;;;;;2.30;1.30;;;;;;;;;;2349541;57;21078;-79
2022/09/06 00:07:14;;;;;;;1.45;1.10;;;;;;;;;;2349778;57;21067;-79
2022/09/06 00:09:41;;;;;;;2.30;0.90;;;;;;;;;;2596874;53;21054;-78
2022/09/06 00:12:08;;;;;;;1.42;0.93;;;;;;;;;;2349517;57;21079;-79
2022/09/06 00:14:35;;;;;;;0.95;0.95;;;;;;;;;;2349618;57;21063;-78
2022/09/06 00:17:02;;;;;;;3.35;0.93;;;;;;;;;;2349039;57;21035;-78
2022/09/06 00:19:29;;;;;;;2.03;1.20;;;;;;;;;;2596723;53;21586;-79
2022/09/06 00:21:56;;;;;;;1.40;1.08;;;;;;;;;;2349348;57;21055;-78
2022/09/06 00:24:23;;;;;;;2.12;1.10;;;;;;;;;;2596553;53;21054;-78
2022/09/06 00:26:50;;;;;;;1.20;1.05;;;;;;;;;;2348711;57;21043;-78
2022/09/06 00:29:17;;;;;;;2.00;1.20;;;;;;;;;;2596691;53;21063;-78
2022/09/06 00:31:44;;;;;;;1.98;1.20;;;;;;;;;;2597093;53;21043;-78
2022/09/06 00:34:11;;;;;;;1.33;1.00;;;;;;;;;;2349217;57;21082;-78
2022/09/06 00:36:38;;;;;;;2.47;1.02;;;;;;;;;;2349050;57;21548;-78
2022/09/06 00:39:05;;;;;;;1.05;0.95;;;;;;;;;;2349089;57;21051;-78
2022/09/06 00:41:32;;;;;;;1.87;1.15;;;;;;;;;;2349381;57;21035;-79
2022/09/06 00:43:59;;;;;;;1.58;1.25;;;;;;;;;;2596646;53;21042;-80
2022/09/06 00:46:27;;;;;;;1.65;1.25;;;;;;;;;;2348361;57;21618;-78
2022/09/06 00:48:56;;;;;;;3.62;1.17;;;;;;;;;;2596592;53;21208;-79
2022/09/06 00:51:24;;;;;;;1.67;1.10;;;;;;;;;;2349191;57;21460;-79
2022/09/06 00:53:51;;;;;;;3.60;1.35;;;;;;;;;;2348971;57;21082;-80
2022/09/06 00:56:18;;;;;;;3.22;1.20;;;;;;;;;;2596152;53;21059;-78
2022/09/06 00:58:47;;;;;;;4.85;1.17;;;;;;;;;;2349109;57;21071;-79
2022/09/06 01:01:14;;;;;;;1.23;1.10;;;;;;;;;;2349050;57;21075;-78
2022/09/06 01:03:41;;;;;;;1.95;1.30;;;;;;;;;;2349116;57;21046;-78
2022/09/06 01:06:14;;;;;;;3.37;1.33;;;;;;;;;;2348501;57;21071;-79
2022/09/06 01:08:49;;;;;;;1.62;1.10;;;;;;;;;;2597227;53;21058;-79
2022/09/06 01:11:22;;;;;;;2.05;1.58;;;;;;;;;;2349049;57;21067;-79
2022/09/06 01:13:52;;;;;;;1.87;1.17;;;;;;;;;;2349289;57;21062;-78
2022/09/06 01:16:23;;;;;;;2.67;1.10;;;;;;;;;;2462260;52;21570;-84
2022/09/06 01:18:57;;;;;;;2.15;1.20;;;;;;;;;;2388822;56;21042;-84
2022/09/06 01:21:33;;;;;;;1.62;1.27;;;;;;;;;;2645013;52;20999;-84
2022/09/06 01:24:11;;;;;;;3.80;1.33;;;;;;;;;;2389358;56;21066;-84
2022/09/06 01:27:05;;;;;;;2.03;1.33;;;;;;;;;;2388575;56;21499;-84
2022/09/06 01:29:36;;;;;;;2.83;1.35;;;;;;;;;;2645058;52;21078;-83
2022/09/06 01:32:06;;;;;;;3.90;1.30;;;;;;;;;;2388589;56;21562;-84
2022/09/06 01:34:35;;;;;;;2.08;1.30;;;;;;;;;;2388914;56;21018;-84
2022/09/06 01:37:04;;;;;;;3.33;1.23;;;;;;;;;;2388549;56;21007;-84
2022/09/06 01:39:32;;;;;;;1.98;1.30;;;;;;;;;;2388883;56;22096;-84
2022/09/06 01:42:03;;;;;;;3.92;1.15;;;;;;;;;;2388802;56;21031;-84
2022/09/06 01:44:30;;;;;;;3.55;1.67;;;;;;;;;;2389081;56;21039;-84
2022/09/06 01:47:02;;;;;;;2.72;1.85;;;;;;;;;;2388384;56;21030;-85
2022/09/06 01:49:33;;;;;;;2.22;1.87;;;;;;;;;;2389139;56;21010;-84
2022/09/06 01:52:06;;;;;;;2.30;1.30;;;;;;;;;;2389031;56;21117;-84
2022/09/06 01:54:44;;;;;;;3.20;1.30;;;;;;;;;;2389281;56;21034;-84
2022/09/06 01:57:17;;;;;;;2.75;1.10;;;;;;;;;;2645294;52;21022;-85
2022/09/06 01:59:50;;;;;;;1.92;1.25;;;;;;;;;;2389415;56;21026;-85
2022/09/06 02:02:20;;;;;;;2.78;1.40;;;;;;;;;;2645663;52;21104;-84
2022/09/06 02:04:50;;;;;;;1.62;1.20;;;;;;;;;;2389142;56;21026;-84
2022/09/06 02:07:20;;;;;;;2.42;1.17;;;;;;;;;;2389152;56;21094;-84
2022/09/06 02:09:49;;;;;;;2.03;1.30;;;;;;;;;;2389252;56;22216;-85
2022/09/06 02:12:18;;;;;;;3.20;1.30;;;;;;;;;;2389279;56;21019;-85
2022/09/06 02:14:49;;;;;;;4.70;1.40;;;;;;;;;;2389213;56;21559;-84
2022/09/06 02:17:19;;;;;;;3.42;1.50;;;;;;;;;;2644905;52;21038;-85
2022/09/06 02:19:49;;;;;;;1.35;1.23;;;;;;;;;;2645364;52;21705;-83
2022/09/06 02:22:19;;;;;;;2.87;1.25;;;;;;;;;;2388783;56;21033;-85
2022/09/06 02:24:47;;;;;;;7.22;1.50;;;;;;;;;;2644767;51;21503;-85
2022/09/06 02:27:15;;;;;;;2.20;1.30;;;;;;;;;;2388713;56;21499;-84
2022/09/06 02:29:42;;;;;;;2.58;1.25;;;;;;;;;;2388320;56;21018;-84
2022/09/06 02:32:13;;;;;;;1.60;1.20;;;;;;;;;;2644067;52;21038;-85
2022/09/06 02:34:42;;;;;;;2.55;1.20;;;;;;;;;;2389484;56;21799;-85
2022/09/06 02:37:11;;;;;;;2.35;1.37;;;;;;;;;;2388949;56;21030;-85
2022/09/06 02:39:38;;;;;;;1.73;1.30;;;;;;;;;;2645713;52;21082;-85
2022/09/06 02:42:05;;;;;;;3.25;1.60;;;;;;;;;;2389540;56;21026;-85
2022/09/06 02:44:32;;;;;;;2.20;1.50;;;;;;;;;;2389232;56;21018;-85
2022/09/06 02:47:00;;;;;;;5.57;1.40;;;;;;;;;;2388824;56;21074;-84
2022/09/06 02:49:27;;;;;;;3.15;1.27;;;;;;;;;;2645952;52;21089;-84
2022/09/06 02:51:54;;;;;;;1.67;1.40;;;;;;;;;;2389370;56;21062;-84
2022/09/06 02:54:21;;;;;;;1.75;1.30;;;;;;;;;;2645732;52;21086;-85
2022/09/06 02:56:48;;;;;;;1.60;1.35;;;;;;;;;;2388802;56;21062;-84
2022/09/06 02:59:15;;;;;;;2.47;1.30;;;;;;;;;;2645623;52;21058;-84
2022/09/06 03:01:42;;;;;;;2.03;1.45;;;;;;;;;;2645774;52;21042;-85
2022/09/06 03:04:09;;;;;;;2.65;1.30;;;;;;;;;;2389525;56;21102;-84
2022/09/06 03:06:36;;;;;;;4.62;1.40;;;;;;;;;;2389065;56;21093;-85
2022/09/06 03:09:03;;;;;;;1.27;1.17;;;;;;;;;;2389752;56;21065;-85
2022/09/06 03:11:30;;;;;;;1.62;1.27;;;;;;;;;;2645757;52;21547;-84
2022/09/06 03:13:57;;;;;;;1.52;1.10;;;;;;;;;;2645649;52;21022;-84
2022/09/06 03:16:24;;;;;;;2.00;1.60;;;;;;;;;;2388959;56;21601;-84
2022/09/06 03:18:51;;;;;;;2.80;1.27;;;;;;;;;;2389421;56;21018;-84
2022/09/06 03:21:18;;;;;;;1.12;1.02;;;;;;;;;;2389468;56;21045;-85
2022/09/06 03:23:45;;;;;;;1.87;1.27;;;;;;;;;;2645930;52;21018;-84
2022/09/06 03:26:12;;;;;;;6.07;1.80;;;;;;;;;;2389230;56;21090;-85
2022/09/06 03:28:39;;;;;;;1.83;1.40;;;;;;;;;;2389683;56;21113;-84
2022/09/06 03:31:06;;;;;;;2.28;1.37;;;;;;;;;;2645975;52;21054;-84
2022/09/06 03:33:33;;;;;;;3.30;1.50;;;;;;;;;;2389500;56;21082;-84
2022/09/06 03:36:01;;;;;;;3.00;1.30;;;;;;;;;;2645093;52;21038;-84
2022/09/06 03:38:29;;;;;;;1.98;1.40;;;;;;;;;;2645616;52;21038;-86
2022/09/06 03:40:56;;;;;;;2.15;1.30;;;;;;;;;;2389552;56;21030;-84
2022/09/06 03:43:24;;;;;;;2.65;1.40;;;;;;;;;;2389366;56;21074;-84
2022/09/06 03:45:52;;;;;;;2.25;1.30;;;;;;;;;;2645217;52;21070;-85
2022/09/06 03:48:19;;;;;;;2.85;1.60;;;;;;;;;;2646001;52;21522;-84
2022/09/06 03:50:47;;;;;;;1.75;1.33;;;;;;;;;;2389531;56;21022;-84
2022/09/06 03:53:14;;;;;;;1.50;1.15;;;;;;;;;;2645649;52;21026;-84
2022/09/06 03:55:44;;;;;;;5.10;1.30;;;;;;;;;;2645450;51;21125;-85
2022/09/06 03:58:11;;;;;;;2.28;1.42;;;;;;;;;;2389298;56;21026;-84
2022/09/06 04:00:38;;;;;;;8.93;1.17;;;;;;;;;;2645884;52;21057;-83
2022/09/06 04:03:05;;;;;;;2.03;1.33;;;;;;;;;;2645843;52;21022;-85
2022/09/06 04:05:32;;;;;;;1.75;1.30;;;;;;;;;;2645175;51;21597;-84
2022/09/06 04:07:59;;;;;;;2.00;1.00;;;;;;;;;;2645676;52;21014;-85
2022/09/06 04:10:26;;;;;;;3.53;1.50;;;;;;;;;;2389559;56;21625;-85
2022/09/06 04:12:53;;;;;;;1.30;1.05;;;;;;;;;;2389452;56;21165;-84
2022/09/06 04:15:20;;;;;;;2.50;1.40;;;;;;;;;;2645526;51;21065;-84
2022/09/06 04:17:47;;;;;;;1.45;1.20;;;;;;;;;;2645882;52;21042;-85
2022/09/06 04:20:15;;;;;;;2.08;1.27;;;;;;;;;;2645691;52;21014;-85
2022/09/06 04:22:42;;;;;;;1.85;1.20;;;;;;;;;;2389551;56;21109;-85
2022/09/06 04:25:10;;;;;;;3.17;1.10;;;;;;;;;;2645631;52;21098;-84
2022/09/06 04:27:37;;;;;;;1.90;1.37;;;;;;;;;;2389346;56;21029;-84
2022/09/06 04:30:05;;;;;;;2.08;1.17;;;;;;;;;;2645789;52;21034;-84
2022/09/06 04:32:32;;;;;;;4.95;1.42;;;;;;;;;;2389601;56;21121;-84
2022/09/06 04:34:59;;;;;;;2.20;1.30;;;;;;;;;;2389086;56;21018;-85
2022/09/06 04:37:26;;;;;;;2.83;1.20;;;;;;;;;;2389341;56;21073;-85
2022/09/06 04:39:53;;;;;;;2.85;1.25;;;;;;;;;;2646193;52;21019;-84
2022/09/06 04:42:20;;;;;;;1.98;1.17;;;;;;;;;;2389654;56;21038;-84
2022/09/06 04:44:50;;;;;;;4.68;1.50;;;;;;;;;;2646198;52;21531;-84
2022/09/06 04:47:18;;;;;;;1.90;1.42;;;;;;;;;;2389601;56;21066;-85
2022/09/06 04:49:47;;;;;;;1.37;1.10;;;;;;;;;;2389876;56;21042;-85
2022/09/06 04:52:14;;;;;;;1.80;1.02;;;;;;;;;;2646272;52;21054;-84
2022/09/06 04:54:41;;;;;;;3.22;1.30;;;;;;;;;;2389741;56;21054;-85
2022/09/06 04:57:08;;;;;;;1.75;1.35;;;;;;;;;;2645685;52;21089;-85
2022/09/06 04:59:35;;;;;;;2.90;1.30;;;;;;;;;;2645973;52;21082;-85
2022/09/06 05:02:02;;;;;;;4.05;1.40;;;;;;;;;;2389859;56;21021;-85
2022/09/06 05:04:29;;;;;;;3.05;1.15;;;;;;;;;;2389812;56;21011;-85
2022/09/06 05:07:03;;;;;;;5.15;1.20;;;;;;;;;;2645752;51;21046;-85
2022/09/06 05:09:31;;;;;;;1.85;1.10;;;;;;;;;;2646297;52;21042;-84
2022/09/06 05:11:58;;;;;;;6.12;1.10;;;;;;;;;;2389774;56;21637;-85
2022/09/06 05:14:25;;;;;;;4.35;1.10;;;;;;;;;;2645886;52;21685;-85
2022/09/06 05:16:53;;;;;;;1.55;1.10;;;;;;;;;;2389248;56;21053;-84
2022/09/06 05:19:20;;;;;;;1.42;1.23;;;;;;;;;;2645859;52;21117;-85
2022/09/06 05:21:47;;;;;;;1.83;1.17;;;;;;;;;;2645985;52;21511;-84
2022/09/06 05:24:14;;;;;;;1.70;1.25;;;;;;;;;;2389638;56;21018;-84
2022/09/06 05:26:41;;;;;;;5.80;1.30;;;;;;;;;;2389113;56;21034;-84
2022/09/06 05:29:08;;;;;;;5.25;1.77;;;;;;;;;;2645219;52;21072;-83
2022/09/06 05:31:35;;;;;;;3.30;1.10;;;;;;;;;;2388434;56;21125;-84
2022/09/06 05:34:02;;;;;;;2.22;1.25;;;;;;;;;;2645015;52;21018;-84
2022/09/06 05:36:30;;;;;;;3.50;1.27;;;;;;;;;;2389130;56;21089;-84
2022/09/06 05:38:58;;;;;;;1.45;1.10;;;;;;;;;;2389913;56;21049;-84
2022/09/06 05:41:25;;;;;;;2.55;1.10;;;;;;;;;;2389907;56;21021;-84
2022/09/06 05:43:52;;;;;;;2.75;1.23;;;;;;;;;;2389795;56;21125;-84
2022/09/06 05:46:20;;;;;;;3.28;1.10;;;;;;;;;;2389424;56;21027;-83
2022/09/06 05:48:52;;;;;;;2.22;1.12;;;;;;;;;;2389892;56;21085;-84
2022/09/06 05:51:19;;;;;;;1.35;1.00;;;;;;;;;;2389880;56;21098;-85
2022/09/06 05:53:46;;;;;;;2.67;1.05;;;;;;;;;;2646042;52;21065;-85
2022/09/06 05:56:14;;;;;;;2.12;1.45;;;;;;;;;;2389229;56;21038;-84
2022/09/06 05:58:41;;;;;;;3.92;1.60;;;;;;;;;;2646111;52;21592;-84
2022/09/06 06:01:13;;;;;;;2.60;1.08;;;;;;;;;;2389845;56;21082;-85
2022/09/06 06:03:40;;;;;;;3.05;1.30;;;;;;;;;;2646054;52;21038;-84
2022/09/06 06:06:07;;;;;;;3.75;1.30;;;;;;;;;;2645846;51;21573;-84
2022/09/06 06:08:35;;;;;;;1.33;1.20;;;;;;;;;;2389557;56;21086;-84
2022/09/06 06:11:02;;;;;;;3.28;1.00;;;;;;;;;;2389987;56;21608;-85
2022/09/06 06:13:33;;;;;;;1.42;1.17;;;;;;;;;;2646235;52;21042;-84
2022/09/06 06:16:02;;;;;;;1.50;1.08;;;;;;;;;;2389203;56;21090;-83
2022/09/06 06:18:29;;;;;;;1.60;1.30;;;;;;;;;;2645905;52;21067;-84
2022/09/06 06:21:07;;;;;;;3.42;1.00;;;;;;;;;;2646045;52;21378;-85
2022/09/06 06:23:34;;;;;;;1.92;1.10;;;;;;;;;;2646323;52;21031;-85
2022/09/06 06:26:01;;;;;;;2.75;1.35;;;;;;;;;;2645469;52;21108;-84
2022/09/06 06:28:28;;;;;;;1.52;1.20;;;;;;;;;;2645848;52;21077;-84
2022/09/06 06:30:55;;;;;;;3.67;1.00;;;;;;;;;;2646118;52;21135;-84
2022/09/06 06:33:22;;;;;;;1.65;1.05;;;;;;;;;;2646180;52;21070;-85
2022/09/06 06:35:57;;;;;;;1.83;1.08;;;;;;;;;;2389173;56;21086;-84
2022/09/06 06:38:24;;;;;;;1.27;1.00;;;;;;;;;;2389633;56;21046;-85
2022/09/06 06:40:51;;;;;;;1.65;1.10;;;;;;;;;;2645819;52;21118;-85
2022/09/06 06:43:18;;;;;;;2.87;1.70;;;;;;;;;;2645962;52;22137;-84
2022/09/06 06:45:49;;;;;;;5.70;1.20;;;;;;;;;;2389210;56;21046;-84
2022/09/06 06:48:16;;;;;;;3.60;1.20;;;;;;;;;;2645731;52;21094;-84
2022/09/06 06:50:43;;;;;;;3.47;1.10;;;;;;;;;;2645777;52;21037;-84
2022/09/06 06:53:10;;;;;;;2.78;1.35;;;;;;;;;;2389600;56;21038;-84
2022/09/06 06:55:37;;;;;;;1.90;1.30;;;;;;;;;;2645335;51;21058;-84
2022/09/06 06:58:04;;;;;;;1.55;1.20;;;;;;;;;;2389268;56;21074;-84
2022/09/06 07:00:31;;;;;;;1.52;0.95;;;;;;;;;;2645603;52;21050;-84
2022/09/06 07:02:58;;;;;;;1.67;1.10;;;;;;;;;;2645490;52;21042;-83
2022/09/06 07:05:26;;;;;;;2.97;1.25;;;;;;;;;;2389126;56;21022;-83
2022/09/06 07:07:53;;;;;;;1.58;1.20;;;;;;;;;;2645625;52;21019;-84
2022/09/06 07:10:20;;;;;;;3.83;1.37;;;;;;;;;;2645854;52;21022;-84
2022/09/06 07:12:47;;;;;;;2.05;1.30;;;;;;;;;;2645753;52;21029;-83
2022/09/06 07:15:33;;;;;;;2.65;1.40;;;;;;;;;;2389658;56;21026;-83
2022/09/06 07:18:01;;;;;;;2.22;1.20;;;;;;;;;;2391711;56;21075;-71
2022/09/06 07:20:28;;;;;;;2.20;1.40;;;;;;;;;;2391875;56;21048;-74
2022/09/06 07:22:59;;;;;;;5.43;1.58;;;;;;;;;;2391487;56;21593;-73
2022/09/06 07:25:26;;;;;;;1.65;1.35;;;;;;;;;;2597989;52;21640;-74
2022/09/06 07:27:57;;;;;;;1.60;1.20;;;;;;;;;;2391274;56;21048;-73
2022/09/06 07:30:24;;;;;;;3.42;1.30;;;;;;;;;;2391689;56;21027;-74
2022/09/06 07:32:51;;;;;;;3.10;1.30;;;;;;;;;;2399770;52;21581;-73
2022/09/06 07:35:19;;;;;;;1.80;1.25;;;;;;;;;;2391482;56;21606;-69
2022/09/06 07:37:52;;;;;;;3.00;1.10;;;;;;;;;;2391744;56;21098;-73
2022/09/06 07:40:19;;;;;;;3.63;1.40;;;;;;;;;;2505700;52;21068;-74
2022/09/06 07:42:46;;;;;;;1.92;1.12;;;;;;;;;;2391607;56;21613;-71
2022/09/06 07:45:13;;;;;;;3.87;1.60;;;;;;;;;;2391420;56;21645;-73
2022/09/06 07:47:40;;;;;;;3.55;1.10;;;;;;;;;;2391440;56;21190;-74
2022/09/06 07:50:08;;;;;;;2.33;1.48;;;;;;;;;;2391784;56;21554;-75
2022/09/06 07:52:35;;;;;;;2.87;1.48;;;;;;;;;;2391404;56;21665;-73
2022/09/06 07:55:02;;;;;;;2.37;1.30;;;;;;;;;;2391492;56;21107;-74
2022/09/06 07:57:29;;;;;;;2.92;0.95;;;;;;;;;;2391322;56;21578;-70
2022/09/06 07:59:56;;;;;;;2.42;1.50;;;;;;;;;;2391584;56;21126;-74
2022/09/06 08:02:23;;;;;;;2.67;1.55;;;;;;;;;;2391763;56;21122;-74
2022/09/06 08:04:50;;;;;;;1.40;1.00;;;;;;;;;;2468388;52;21099;-74
2022/09/06 08:07:17;;;;;;;2.75;1.58;;;;;;;;;;2391190;56;21562;-72
2022/09/06 08:09:44;;;;;;;1.60;1.30;;;;;;;;;;2391668;56;21083;-73
2022/09/06 08:12:11;;;;;;;1.58;1.17;;;;;;;;;;2391958;56;21162;-75
2022/09/06 08:14:38;;;;;;;4.97;1.60;;;;;;;;;;2391500;56;21047;-71
2022/09/06 08:17:05;;;;;;;3.25;1.40;;;;;;;;;;2391257;56;21051;-74
2022/09/06 08:19:33;;;;;;;3.47;1.40;;;;;;;;;;2391855;56;21570;-71
2022/09/06 08:22:00;;;;;;;3.10;1.35;;;;;;;;;;2427035;52;21024;-74
2022/09/06 08:24:27;;;;;;;3.10;1.25;;;;;;;;;;2391678;56;21044;-74
2022/09/06 08:26:54;;;;;;;7.35;1.50;;;;;;;;;;2391429;56;21036;-75
2022/09/06 08:29:21;;;;;;;1.92;1.30;;;;;;;;;;2446804;52;21131;-74
2022/09/06 08:31:49;;;;;;;2.75;1.23;;;;;;;;;;2392045;56;21108;-74
2022/09/06 08:34:16;;;;;;;4.47;1.40;;;;;;;;;;2485171;52;21562;-74
2022/09/06 08:36:44;;;;;;;5.22;1.40;;;;;;;;;;2414500;52;21135;-74
2022/09/06 08:39:11;;;;;;;3.08;1.30;;;;;;;;;;2397814;52;21016;-74
2022/09/06 08:41:46;;;;;;;1.60;1.40;;;;;;;;;;2392060;56;21047;-74
2022/09/06 08:44:14;;;;;;;3.33;1.30;;;;;;;;;;2391530;56;21115;-74
2022/09/06 08:46:42;;;;;;;1.52;1.20;;;;;;;;;;2391417;56;21677;-74
2022/09/06 08:49:09;;;;;;;2.03;1.20;;;;;;;;;;2452927;52;21103;-74
2022/09/06 08:51:43;;;;;;;3.92;1.37;;;;;;;;;;2392016;56;21040;-75
2022/09/06 08:54:15;;;;;;;2.28;1.40;;;;;;;;;;2391652;56;21043;-75
2022/09/06 08:56:50;;;;;;;1.33;1.10;;;;;;;;;;2391359;56;21582;-75
2022/09/06 08:59:19;;;;;;;3.58;1.37;;;;;;;;;;2391645;56;21597;-74
2022/09/06 09:01:53;;;;;;;3.20;1.40;;;;;;;;;;2395545;52;21067;-74
2022/09/06 09:04:22;;;;;;;2.95;1.50;;;;;;;;;;2391228;56;21059;-74
2022/09/06 09:06:51;;;;;;;2.05;1.33;;;;;;;;;;2393362;52;21040;-75
2022/09/06 09:09:18;;;;;;;1.95;1.58;;;;;;;;;;2395299;52;21099;-73
2022/09/06 09:11:47;;;;;;;3.42;1.70;;;;;;;;;;2392149;56;21521;-74
2022/09/06 09:14:16;;;;;;;4.72;1.92;;;;;;;;;;2391473;56;21079;-72
2022/09/06 09:16:43;;;;;;;3.70;1.60;;;;;;;;;;2391342;56;21119;-74
2022/09/06 09:19:11;;;;;;;4.43;1.52;;;;;;;;;;2391881;56;21119;-73
2022/09/06 09:21:39;;;;;;;3.10;1.33;;;;;;;;;;2391691;56;21052;-75
2022/09/06 09:24:07;;;;;;;3.08;1.40;;;;;;;;;;2391806;56;21577;-74
2022/09/06 09:26:36;;;;;;;2.03;1.30;;;;;;;;;;2391127;56;21547;-75
2022/09/06 09:29:04;;;;;;;1.85;1.20;;;;;;;;;;2391812;56;21357;-71
2022/09/06 09:31:34;;;;;;;2.45;1.48;;;;;;;;;;2466530;52;21084;-75
2022/09/06 09:34:03;;;;;;;4.93;1.83;;;;;;;;;;2391802;56;21099;-73
2022/09/06 09:36:30;;;;;;;7.45;1.70;;;;;;;;;;2391200;56;21047;-74
2022/09/06 09:38:58;;;;;;;2.37;1.58;;;;;;;;;;2391818;56;21320;-72
2022/09/06 09:41:28;;;;;;;2.33;1.85;;;;;;;;;;2391737;56;21056;-75
2022/09/06 09:43:57;;;;;;;4.65;1.92;;;;;;;;;;2587673;52;21083;-74
2022/09/06 09:46:31;;;;;;;6.97;2.03;;;;;;;;;;2391169;56;21048;-74
2022/09/06 09:49:03;;;;;;;3.67;1.50;;;;;;;;;;2391948;56;21190;-72
2022/09/06 09:51:31;;;;;;;7.82;2.17;;;;;;;;;;2391496;56;21526;-74
2022/09/06 09:53:59;;;;;;;3.78;1.60;;;;;;;;;;2391711;56;21542;-75
2022/09/06 09:56:35;;;;;;;6.30;1.90;;;;;;;;;;2391041;56;21036;-74
2022/09/06 09:59:03;;;;;;;3.17;2.05;;;;;;;;;;2391726;56;21103;-75
2022/09/06 10:01:30;;;;;;;3.22;2.00;;;;;;;;;;2391480;56;21124;-74
2022/09/06 10:04:02;;;;;;;4.18;1.70;;;;;;;;;;2391673;56;21056;-72
2022/09/06 10:06:29;;;;;;;3.30;1.98;;;;;;;;;;2390967;56;21083;-74
2022/09/06 10:08:56;;;;;;;5.60;1.62;;;;;;;;;;2391744;56;21123;-73
2022/09/06 10:11:39;;;;;;;6.65;1.67;;;;;;;;;;2391622;56;21020;-75
2022/09/06 10:14:13;;;;;;;4.05;1.55;;;;;;;;;;2649235;52;21043;-74
2022/09/06 10:16:44;;;;;;;4.00;1.73;;;;;;;;;;2390784;56;21081;-74
2022/09/06 10:19:22;;;;;;;2.67;1.73;;;;;;;;;;2392087;56;21036;-75
2022/09/06 10:21:50;;;;;;;4.90;1.95;;;;;;;;;;2391492;56;21115;-75
2022/09/06 10:24:23;;;;;;;6.90;1.80;;;;;;;;;;2391756;56;21047;-73
2022/09/06 10:26:51;;;;;;;2.65;1.60;;;;;;;;;;2390900;56;21087;-75
2022/09/06 10:29:21;;;;;;;2.50;1.45;;;;;;;;;;2391739;56;21167;-75
2022/09/06 10:31:57;;;;;;;5.72;1.58;;;;;;;;;;2391488;56;21113;-75
2022/09/06 10:34:52;;;;;;;3.50;1.50;;;;;;;;;;2391671;56;21051;-74
2022/09/06 10:37:29;;;;;;;2.45;1.37;;;;;;;;;;2370764;56;21087;-75
2022/09/06 10:39:59;;;;;;;2.17;1.67;;;;;;;;;;2391652;56;21174;-74
2022/09/06 10:42:31;;;;;;;3.65;1.62;;;;;;;;;;2391557;56;21091;-74
2022/09/06 10:45:03;;;;;;;2.80;1.48;;;;;;;;;;2391998;56;21047;-75
2022/09/06 10:47:32;;;;;;;4.20;1.80;;;;;;;;;;2391226;56;21581;-72
2022/09/06 10:50:01;;;;;;;3.65;1.80;;;;;;;;;;2391552;56;21036;-74
2022/09/06 10:52:31;;;;;;;6.57;1.83;;;;;;;;;;2391520;56;21138;-75
2022/09/06 10:55:02;;;;;;;2.30;1.62;;;;;;;;;;2391627;56;21055;-74
2022/09/06 10:57:33;;;;;;;2.05;1.65;;;;;;;;;;2391113;56;21649;-74
2022/09/06 11:00:03;;;;;;;4.75;1.85;;;;;;;;;;2391895;56;21043;-75
2022/09/06 11:02:38;;;;;;;2.70;1.70;;;;;;;;;;2391592;56;21115;-74
2022/09/06 11:05:07;;;;;;;2.42;1.60;;;;;;;;;;2391594;56;21032;-75
2022/09/06 11:07:37;;;;;;;5.35;1.67;;;;;;;;;;2431063;52;21047;-74
2022/09/06 11:10:06;;;;;;;2.15;1.75;;;;;;;;;;2391615;56;21609;-74
2022/09/06 11:12:37;;;;;;;4.22;1.55;;;;;;;;;;2391550;56;21393;-75
2022/09/06 11:15:06;;;;;;;5.97;2.25;;;;;;;;;;2392062;52;21114;-74
2022/09/06 11:17:39;;;;;;;3.22;1.70;;;;;;;;;;2391078;56;21040;-75
2022/09/06 11:20:11;;;;;;;2.80;1.83;;;;;;;;;;2392078;56;21111;-74
2022/09/06 11:22:57;;;;;;;4.60;1.55;;;;;;;;;;2391597;56;21024;-75
2022/09/06 11:25:43;;;;;;;2.25;1.55;;;;;;;;;;2391122;56;21114;-76
2022/09/06 11:28:14;;;;;;;2.17;1.50;;;;;;;;;;2375170;56;21504;-76
2022/09/06 11:30:44;;;;;;;2.10;1.45;;;;;;;;;;2391582;56;21115;-76
2022/09/06 11:33:18;;;;;;;3.03;1.95;;;;;;;;;;2391472;56;21043;-76
2022/09/06 11:35:45;;;;;;;3.65;1.87;;;;;;;;;;2394303;52;21020;-76
2022/09/06 11:38:19;;;;;;;9.30;1.80;;;;;;;;;;2391234;56;21068;-76
2022/09/06 11:40:47;;;;;;;2.95;1.50;;;;;;;;;;2391312;56;21605;-76
2022/09/06 11:43:16;;;;;;;6.05;2.08;;;;;;;;;;2391282;56;21111;-75
2022/09/06 11:45:44;;;;;;;2.92;1.50;;;;;;;;;;2391094;56;21574;-76
2022/09/06 11:48:33;;;;;;;3.53;2.00;;;;;;;;;;2482497;52;21032;-76
2022/09/06 11:51:05;;;;;;;4.25;1.70;;;;;;;;;;2391745;56;21043;-76
2022/09/06 11:53:33;;;;;;;3.62;1.70;;;;;;;;;;2391535;56;21135;-73
2022/09/06 11:56:12;;;;;;;2.08;1.70;;;;;;;;;;2391062;56;21115;-73
2022/09/06 11:58:48;;;;;;;1.90;1.42;;;;;;;;;;2391537;56;21526;-76
2022/09/06 12:01:36;;;;;;;3.12;1.73;;;;;;;;;;2391615;56;21115;-76
2022/09/06 12:04:05;;;;;;;2.67;1.90;;;;;;;;;;2391426;56;22291;-76
2022/09/06 12:06:34;;;;;;;7.30;1.95;;;;;;;;;;2526944;52;21048;-76
2022/09/06 12:09:01;;;;;;;1.62;1.50;;;;;;;;;;2457822;52;21158;-76
2022/09/06 12:11:33;;;;;;;2.50;1.37;;;;;;;;;;2391522;56;21523;-76
2022/09/06 12:14:02;;;;;;;3.95;1.70;;;;;;;;;;2391385;56;21123;-74
2022/09/06 12:17:05;;;;;;;2.28;1.50;;;;;;;;;;2390946;56;21605;-76
2022/09/06 12:19:40;;;;;;;6.43;2.47;;;;;;;;;;2407939;52;21045;-76
2022/09/06 12:22:26;;;;;;;2.40;1.65;;;;;;;;;;2391638;56;21051;-76
2022/09/06 12:24:55;;;;;;;2.05;1.33;;;;;;;;;;2391446;56;21095;-76
2022/09/06 12:27:23;;;;;;;2.00;1.33;;;;;;;;;;2390877;56;21064;-75
2022/09/06 12:29:56;;;;;;;4.10;1.75;;;;;;;;;;2391442;56;21550;-76
2022/09/06 12:32:25;;;;;;;2.83;1.62;;;;;;;;;;2605492;52;21098;-76
2022/09/06 12:34:53;;;;;;;2.58;1.77;;;;;;;;;;2391349;56;21040;-76
2022/09/06 12:37:31;;;;;;;5.95;1.77;;;;;;;;;;2391117;56;21115;-76
2022/09/06 12:39:58;;;;;;;3.35;1.95;;;;;;;;;;2391439;56;21530;-75
2022/09/06 12:42:25;;;;;;;7.70;1.70;;;;;;;;;;2391510;56;21111;-76
2022/09/06 12:44:54;;;;;;;3.08;1.95;;;;;;;;;;2391393;56;21048;-76
2022/09/06 12:47:23;;;;;;;1.70;1.23;;;;;;;;;;2390968;56;21099;-76
2022/09/06 12:50:05;;;;;;;2.40;1.60;;;;;;;;;;2391406;56;21547;-73
2022/09/06 12:52:32;;;;;;;2.17;1.55;;;;;;;;;;2391521;56;21060;-72
2022/09/06 12:55:00;;;;;;;2.30;1.52;;;;;;;;;;2391355;56;21036;-76
2022/09/06 12:57:27;;;;;;;2.72;1.65;;;;;;;;;;2391662;56;21048;-75
2022/09/06 12:59:54;;;;;;;4.70;1.75;;;;;;;;;;2391853;56;21095;-76
2022/09/06 13:02:25;;;;;;;3.78;1.48;;;;;;;;;;2391835;56;21048;-76
2022/09/06 13:04:54;;;;;;;1.70;1.50;;;;;;;;;;2391505;56;21570;-75
2022/09/06 13:07:22;;;;;;;1.83;1.35;;;;;;;;;;2391131;56;21031;-73
2022/09/06 13:09:50;;;;;;;2.58;1.30;;;;;;;;;;2391747;56;21110;-72
2022/09/06 13:12:19;;;;;;;4.43;1.45;;;;;;;;;;2391635;56;21051;-73
2022/09/06 13:14:46;;;;;;;3.92;1.55;;;;;;;;;;2391530;56;21036;-74
2022/09/06 13:17:23;;;;;;;1.95;1.30;;;;;;;;;;2549397;52;71903;-77
2022/09/06 13:19:50;;;;;;;3.37;1.58;;;;;;;;;;2386477;56;21038;-78
2022/09/06 13:22:36;;;;;;;2.83;1.50;;;;;;;;;;2386551;56;21574;-77
2022/09/06 13:25:04;;;;;;;3.83;1.35;;;;;;;;;;2386464;56;21081;-77
2022/09/06 13:27:35;;;;;;;3.70;1.27;;;;;;;;;;2642603;52;21033;-77
2022/09/06 13:30:05;;;;;;;5.70;1.60;;;;;;;;;;2386644;56;21090;-78
2022/09/06 13:32:33;;;;;;;2.25;1.48;;;;;;;;;;2602576;52;71235;-74
2022/09/06 13:35:01;;;;;;;2.17;1.50;;;;;;;;;;2385722;56;21082;-75
2022/09/06 13:37:30;;;;;;;4.05;1.65;;;;;;;;;;2385255;56;21018;-75
2022/09/06 13:39:58;;;;;;;2.33;1.70;;;;;;;;;;2385861;56;21026;-74
2022/09/06 13:42:26;;;;;;;3.90;1.40;;;;;;;;;;2385966;56;21017;-74
2022/09/06 13:44:53;;;;;;;3.78;1.42;;;;;;;;;;2385640;56;21030;-75
2022/09/06 13:47:20;;;;;;;2.53;1.52;;;;;;;;;;2385246;56;21094;-75
2022/09/06 13:49:48;;;;;;;2.20;1.62;;;;;;;;;;2385840;56;21022;-74
2022/09/06 13:52:15;;;;;;;4.62;1.62;;;;;;;;;;2385702;56;21080;-74
2022/09/06 13:54:42;;;;;;;7.47;2.00;;;;;;;;;;2386041;56;21089;-74
2022/09/06 13:57:09;;;;;;;6.00;1.90;;;;;;;;;;2385075;56;21090;-75
2022/09/06 13:59:36;;;;;;;3.58;1.60;;;;;;;;;;2385736;56;21712;-75
2022/09/06 14:02:04;;;;;;;4.12;1.87;;;;;;;;;;2385810;56;21031;-75
2022/09/06 14:04:31;;;;;;;4.20;1.40;;;;;;;;;;2385657;56;21030;-75
2022/09/06 14:06:58;;;;;;;2.97;1.58;;;;;;;;;;2385149;56;21018;-75
2022/09/06 14:09:25;;;;;;;7.62;2.28;;;;;;;;;;2385888;56;21031;-75
2022/09/06 14:14:56;;;;;;;3.37;1.80;;;;;;;;;;2386156;56;20974;-75
2022/09/06 14:17:23;;;;;;;3.42;1.67;;;;;;;;;;2385244;56;21055;-74
2022/09/06 14:19:50;;;;;;;3.12;1.50;;;;;;;;;;2385980;56;21600;-76
2022/09/06 14:22:17;;;;;;;2.37;1.52;;;;;;;;;;2385576;56;21049;-75
2022/09/06 14:24:44;;;;;;;3.78;1.58;;;;;;;;;;2385759;56;21121;-76
2022/09/06 14:27:11;;;;;;;3.33;1.52;;;;;;;;;;2385330;56;21018;-75
2022/09/06 14:29:38;;;;;;;3.97;1.58;;;;;;;;;;2385730;56;21284;-75
2022/09/06 14:32:06;;;;;;;2.17;1.55;;;;;;;;;;2385809;56;21051;-75
2022/09/06 14:34:33;;;;;;;4.70;1.98;;;;;;;;;;2385584;56;21109;-75
2022/09/06 14:37:00;;;;;;;4.78;1.90;;;;;;;;;;2384917;56;21522;-75
2022/09/06 14:39:27;;;;;;;4.75;1.70;;;;;;;;;;2385846;56;21286;-75
2022/09/06 14:41:54;;;;;;;3.15;1.48;;;;;;;;;;2385870;56;21089;-75
2022/09/06 14:44:21;;;;;;;2.40;1.60;;;;;;;;;;2385895;56;21018;-75
2022/09/06 14:46:52;;;;;;;2.95;1.70;;;;;;;;;;2385214;56;21018;-75
2022/09/06 14:49:19;;;;;;;3.33;1.65;;;;;;;;;;2385833;56;21002;-75
2022/09/06 14:51:46;;;;;;;2.72;1.42;;;;;;;;;;2385517;56;21034;-75
2022/09/06 14:54:16;;;;;;;2.03;1.55;;;;;;;;;;2385832;56;21149;-75
2022/09/06 14:56:43;;;;;;;7.03;1.85;;;;;;;;;;2385185;56;21011;-75
2022/09/06 14:59:10;;;;;;;2.80;1.65;;;;;;;;;;2385717;56;21524;-74